sensor_id;sensor_type;location;lat;lon;timestamp;temperature;humidity
16321;DHT22;8269;50.990;4.494;2023-07-29T00:00:40;18.70;99.90
16321;DHT22;8269;50.990;4.494;2023-07-29T00:03:05;18.60;99.90
16321;DHT22;8269;50.990;4.494;2023-07-29T00:05:31;18.70;99.90
16321;DHT22;8269;50.990;4.494;2023-07-29T00:07:57;18.60;99.90
16321;DHT22;8269;50.990;4.494;2023-07-29T00:10:22;18.60;99.90
16321;DHT22;8269;50.990;4.494;2023-07-29T00:12:48;18.60;99.90
16321;DHT22;8269;50.990;4.494;2023-07-29T00:15:13;18.50;99.90
16321;DHT22;8269;50.990;4.494;2023-07-29T00:17:39;18.40;99.90
16321;DHT22;8269;50.990;4.494;2023-07-29T00:20:06;18.40;99.90
16321;DHT22;8269;50.990;4.494;2023-07-29T00:22:32;18.40;99.90
16321;DHT22;8269;50.990;4.494;2023-07-29T00:24:57;18.40;99.90
16321;DHT22;8269;50.990;4.494;2023-07-29T00:27:24;18.30;99.90
16321;DHT22;8269;50.990;4.494;2023-07-29T00:29:50;18.40;99.90
16321;DHT22;8269;50.990;4.494;2023-07-29T00:32:16;18.40;99.90
16321;DHT22;8269;50.990;4.494;2023-07-29T00:34:41;18.30;99.90
16321;DHT22;8269;50.990;4.494;2023-07-29T00:37:07;18.30;99.90
16321;DHT22;8269;50.990;4.494;2023-07-29T00:39:33;18.30;99.90
16321;DHT22;8269;50.990;4.494;2023-07-29T00:41:59;18.20;99.90
16321;DHT22;8269;50.990;4.494;2023-07-29T00:44:24;18.20;99.90
16321;DHT22;8269;50.990;4.494;2023-07-29T00:46:52;18.10;99.90
16321;DHT22;8269;50.990;4.494;2023-07-29T00:49:21;18.10;99.90
16321;DHT22;8269;50.990;4.494;2023-07-29T00:51:47;18.10;99.90
16321;DHT22;8269;50.990;4.494;2023-07-29T00:54:13;18.00;99.90
16321;DHT22;8269;50.990;4.494;2023-07-29T00:56:39;17.90;99.90
16321;DHT22;8269;50.990;4.494;2023-07-29T00:59:05;17.90;99.90
16321;DHT22;8269;50.990;4.494;2023-07-29T01:01:31;17.80;99.90
16321;DHT22;8269;50.990;4.494;2023-07-29T01:03:58;17.80;99.90
16321;DHT22;8269;50.990;4.494;2023-07-29T01:06:50;17.80;99.90
16321;DHT22;8269;50.990;4.494;2023-07-29T01:09:28;17.80;99.90
16321;DHT22;8269;50.990;4.494;2023-07-29T01:12:16;17.80;99.90
16321;DHT22;8269;50.990;4.494;2023-07-29T01:17:33;17.70;99.90
16321;DHT22;8269;50.990;4.494;2023-07-29T01:20:08;17.70;99.90
16321;DHT22;8269;50.990;4.494;2023-07-29T01:22:35;17.70;99.90
16321;DHT22;8269;50.990;4.494;2023-07-29T01:25:03;17.70;99.90
16321;DHT22;8269;50.990;4.494;2023-07-29T01:27:29;17.70;99.90
16321;DHT22;8269;50.990;4.494;2023-07-29T01:29:55;17.60;99.90
16321;DHT22;8269;50.990;4.494;2023-07-29T01:32:41;17.60;99.90
16321;DHT22;8269;50.990;4.494;2023-07-29T01:35:35;17.60;99.90
16321;DHT22;8269;50.990;4.494;2023-07-29T01:38:24;17.50;99.90
16321;DHT22;8269;50.990;4.494;2023-07-29T01:40:53;17.50;99.90
16321;DHT22;8269;50.990;4.494;2023-07-29T01:43:20;17.60;99.90
16321;DHT22;8269;50.990;4.494;2023-07-29T01:45:49;17.60;99.90
16321;DHT22;8269;50.990;4.494;2023-07-29T01:48:15;17.60;99.90
16321;DHT22;8269;50.990;4.494;2023-07-29T01:50:40;17.50;99.90
16321;DHT22;8269;50.990;4.494;2023-07-29T01:53:06;17.50;99.90
16321;DHT22;8269;50.990;4.494;2023-07-29T01:55:31;17.40;99.90
16321;DHT22;8269;50.990;4.494;2023-07-29T01:57:57;17.30;99.90
16321;DHT22;8269;50.990;4.494;2023-07-29T02:00:23;17.30;99.90
16321;DHT22;8269;50.990;4.494;2023-07-29T02:02:49;17.30;99.90
16321;DHT22;8269;50.990;4.494;2023-07-29T02:05:15;17.30;99.90
16321;DHT22;8269;50.990;4.494;2023-07-29T02:07:40;17.20;99.90
16321;DHT22;8269;50.990;4.494;2023-07-29T02:10:06;17.20;99.90
16321;DHT22;8269;50.990;4.494;2023-07-29T02:12:33;17.10;99.90
16321;DHT22;8269;50.990;4.494;2023-07-29T02:14:58;17.10;99.90
16321;DHT22;8269;50.990;4.494;2023-07-29T02:17:24;17.10;99.90
16321;DHT22;8269;50.990;4.494;2023-07-29T02:19:51;17.10;99.90
16321;DHT22;8269;50.990;4.494;2023-07-29T02:22:17;17.10;99.90
16321;DHT22;8269;50.990;4.494;2023-07-29T02:24:43;17.10;99.90
16321;DHT22;8269;50.990;4.494;2023-07-29T02:27:09;17.10;99.90
16321;DHT22;8269;50.990;4.494;2023-07-29T02:29:35;17.10;99.90
16321;DHT22;8269;50.990;4.494;2023-07-29T02:32:00;17.10;99.90
16321;DHT22;8269;50.990;4.494;2023-07-29T02:34:26;17.10;99.90
16321;DHT22;8269;50.990;4.494;2023-07-29T02:36:52;17.10;99.90
16321;DHT22;8269;50.990;4.494;2023-07-29T02:39:17;17.10;99.90
16321;DHT22;8269;50.990;4.494;2023-07-29T02:41:43;17.10;99.90
16321;DHT22;8269;50.990;4.494;2023-07-29T02:44:09;17.10;99.90
16321;DHT22;8269;50.990;4.494;2023-07-29T02:46:35;17.10;99.90
16321;DHT22;8269;50.990;4.494;2023-07-29T02:49:02;17.10;99.90
16321;DHT22;8269;50.990;4.494;2023-07-29T02:51:28;17.10;99.90
16321;DHT22;8269;50.990;4.494;2023-07-29T02:53:54;17.00;99.90
16321;DHT22;8269;50.990;4.494;2023-07-29T02:56:19;17.10;99.90
16321;DHT22;8269;50.990;4.494;2023-07-29T02:58:45;17.10;99.90
16321;DHT22;8269;50.990;4.494;2023-07-29T03:01:10;17.00;99.90
16321;DHT22;8269;50.990;4.494;2023-07-29T03:03:36;17.10;99.90
16321;DHT22;8269;50.990;4.494;2023-07-29T03:06:06;17.00;99.90
16321;DHT22;8269;50.990;4.494;2023-07-29T03:08:31;17.00;99.90
16321;DHT22;8269;50.990;4.494;2023-07-29T03:10:58;17.00;99.90
16321;DHT22;8269;50.990;4.494;2023-07-29T03:13:23;17.00;99.90
16321;DHT22;8269;50.990;4.494;2023-07-29T03:15:49;16.90;99.90
16321;DHT22;8269;50.990;4.494;2023-07-29T03:18:15;17.00;99.90
16321;DHT22;8269;50.990;4.494;2023-07-29T03:20:41;17.00;99.90
16321;DHT22;8269;50.990;4.494;2023-07-29T03:23:07;17.00;99.90
16321;DHT22;8269;50.990;4.494;2023-07-29T03:25:32;17.00;99.90
16321;DHT22;8269;50.990;4.494;2023-07-29T03:27:58;17.00;99.90
16321;DHT22;8269;50.990;4.494;2023-07-29T03:30:24;17.00;99.90
16321;DHT22;8269;50.990;4.494;2023-07-29T03:32:50;16.90;99.90
16321;DHT22;8269;50.990;4.494;2023-07-29T03:35:15;16.90;99.90
16321;DHT22;8269;50.990;4.494;2023-07-29T03:37:41;16.90;99.90
16321;DHT22;8269;50.990;4.494;2023-07-29T03:40:08;16.90;99.90
16321;DHT22;8269;50.990;4.494;2023-07-29T03:42:35;16.90;99.90
16321;DHT22;8269;50.990;4.494;2023-07-29T03:45:00;16.90;99.90
16321;DHT22;8269;50.990;4.494;2023-07-29T03:47:26;16.80;99.90
16321;DHT22;8269;50.990;4.494;2023-07-29T03:49:52;16.80;99.90
16321;DHT22;8269;50.990;4.494;2023-07-29T03:52:18;16.80;99.90
16321;DHT22;8269;50.990;4.494;2023-07-29T03:54:43;16.90;99.90
16321;DHT22;8269;50.990;4.494;2023-07-29T03:57:09;16.90;99.90
16321;DHT22;8269;50.990;4.494;2023-07-29T03:59:35;16.90;99.90
16321;DHT22;8269;50.990;4.494;2023-07-29T04:02:00;16.80;99.90
16321;DHT22;8269;50.990;4.494;2023-07-29T04:04:26;16.80;99.90
16321;DHT22;8269;50.990;4.494;2023-07-29T04:06:51;16.80;99.90
16321;DHT22;8269;50.990;4.494;2023-07-29T04:09:17;16.80;99.90
16321;DHT22;8269;50.990;4.494;2023-07-29T04:11:43;16.80;99.90
16321;DHT22;8269;50.990;4.494;2023-07-29T04:14:09;16.80;99.90
16321;DHT22;8269;50.990;4.494;2023-07-29T04:16:34;16.80;99.90
16321;DHT22;8269;50.990;4.494;2023-07-29T04:19:00;16.70;99.90
16321;DHT22;8269;50.990;4.494;2023-07-29T04:21:26;16.70;99.90
16321;DHT22;8269;50.990;4.494;2023-07-29T04:23:51;16.80;99.90
16321;DHT22;8269;50.990;4.494;2023-07-29T04:26:17;16.80;99.90
16321;DHT22;8269;50.990;4.494;2023-07-29T04:28:43;16.80;99.90
16321;DHT22;8269;50.990;4.494;2023-07-29T04:31:08;16.90;99.90
16321;DHT22;8269;50.990;4.494;2023-07-29T04:33:34;16.90;99.90
16321;DHT22;8269;50.990;4.494;2023-07-29T04:35:59;16.90;99.90
16321;DHT22;8269;50.990;4.494;2023-07-29T04:38:31;16.90;99.90
16321;DHT22;8269;50.990;4.494;2023-07-29T04:40:58;17.00;99.90
16321;DHT22;8269;50.990;4.494;2023-07-29T04:43:30;17.00;99.90
16321;DHT22;8269;50.990;4.494;2023-07-29T04:45:56;17.00;99.90
16321;DHT22;8269;50.990;4.494;2023-07-29T04:48:22;17.00;99.90
16321;DHT22;8269;50.990;4.494;2023-07-29T04:50:48;17.00;99.90
16321;DHT22;8269;50.990;4.494;2023-07-29T04:53:13;17.00;99.90
16321;DHT22;8269;50.990;4.494;2023-07-29T04:55:41;17.00;99.90
16321;DHT22;8269;50.990;4.494;2023-07-29T04:58:08;17.00;99.90
16321;DHT22;8269;50.990;4.494;2023-07-29T05:00:33;17.00;99.90
16321;DHT22;8269;50.990;4.494;2023-07-29T05:02:59;17.00;99.90
16321;DHT22;8269;50.990;4.494;2023-07-29T05:05:25;17.00;99.90
16321;DHT22;8269;50.990;4.494;2023-07-29T05:07:50;17.00;99.90
16321;DHT22;8269;50.990;4.494;2023-07-29T05:10:16;17.10;99.90
16321;DHT22;8269;50.990;4.494;2023-07-29T05:12:41;17.10;99.90
16321;DHT22;8269;50.990;4.494;2023-07-29T05:15:08;17.20;99.90
16321;DHT22;8269;50.990;4.494;2023-07-29T05:17:34;17.30;99.90
16321;DHT22;8269;50.990;4.494;2023-07-29T05:19:59;17.50;99.90
16321;DHT22;8269;50.990;4.494;2023-07-29T05:22:25;17.80;99.90
16321;DHT22;8269;50.990;4.494;2023-07-29T05:24:50;18.30;99.90
16321;DHT22;8269;50.990;4.494;2023-07-29T05:27:16;18.60;99.90
16321;DHT22;8269;50.990;4.494;2023-07-29T05:29:42;18.80;99.90
16321;DHT22;8269;50.990;4.494;2023-07-29T05:32:07;18.90;99.90
16321;DHT22;8269;50.990;4.494;2023-07-29T05:34:33;18.80;99.90
16321;DHT22;8269;50.990;4.494;2023-07-29T05:36:58;18.90;99.90
16321;DHT22;8269;50.990;4.494;2023-07-29T05:39:24;19.30;99.90
16321;DHT22;8269;50.990;4.494;2023-07-29T05:41:49;19.10;99.90
16321;DHT22;8269;50.990;4.494;2023-07-29T05:44:15;18.80;99.90
16321;DHT22;8269;50.990;4.494;2023-07-29T05:46:40;18.60;99.90
16321;DHT22;8269;50.990;4.494;2023-07-29T05:49:06;18.50;99.90
16321;DHT22;8269;50.990;4.494;2023-07-29T05:51:32;18.50;99.90
16321;DHT22;8269;50.990;4.494;2023-07-29T05:53:57;18.50;99.90
16321;DHT22;8269;50.990;4.494;2023-07-29T05:56:23;18.50;99.90
16321;DHT22;8269;50.990;4.494;2023-07-29T05:58:48;18.50;99.90
16321;DHT22;8269;50.990;4.494;2023-07-29T06:01:15;18.40;99.90
16321;DHT22;8269;50.990;4.494;2023-07-29T06:03:40;18.40;99.90
16321;DHT22;8269;50.990;4.494;2023-07-29T06:06:06;18.40;99.90
16321;DHT22;8269;50.990;4.494;2023-07-29T06:08:31;18.40;99.90
16321;DHT22;8269;50.990;4.494;2023-07-29T06:11:00;18.50;99.90
16321;DHT22;8269;50.990;4.494;2023-07-29T06:13:25;18.60;99.90
16321;DHT22;8269;50.990;4.494;2023-07-29T06:15:51;18.70;99.90
16321;DHT22;8269;50.990;4.494;2023-07-29T06:18:16;18.80;99.90
16321;DHT22;8269;50.990;4.494;2023-07-29T06:20:42;18.90;99.90
16321;DHT22;8269;50.990;4.494;2023-07-29T06:23:09;19.40;99.90
16321;DHT22;8269;50.990;4.494;2023-07-29T06:25:34;20.20;99.90
16321;DHT22;8269;50.990;4.494;2023-07-29T06:28:00;21.00;99.90
16321;DHT22;8269;50.990;4.494;2023-07-29T06:30:26;21.60;99.90
16321;DHT22;8269;50.990;4.494;2023-07-29T06:32:51;22.10;99.90
16321;DHT22;8269;50.990;4.494;2023-07-29T06:35:17;21.90;99.90
16321;DHT22;8269;50.990;4.494;2023-07-29T06:37:42;21.70;99.90
16321;DHT22;8269;50.990;4.494;2023-07-29T06:40:08;21.30;99.90
16321;DHT22;8269;50.990;4.494;2023-07-29T06:42:34;21.50;99.90
16321;DHT22;8269;50.990;4.494;2023-07-29T06:44:59;21.70;99.90
16321;DHT22;8269;50.990;4.494;2023-07-29T06:47:25;21.60;99.90
16321;DHT22;8269;50.990;4.494;2023-07-29T06:49:51;21.40;99.90
16321;DHT22;8269;50.990;4.494;2023-07-29T06:52:16;21.60;99.90
16321;DHT22;8269;50.990;4.494;2023-07-29T06:54:42;21.80;99.90
16321;DHT22;8269;50.990;4.494;2023-07-29T06:57:07;22.20;99.90
16321;DHT22;8269;50.990;4.494;2023-07-29T06:59:33;22.50;99.90
16321;DHT22;8269;50.990;4.494;2023-07-29T07:02:00;22.50;99.90
16321;DHT22;8269;50.990;4.494;2023-07-29T07:04:27;22.70;99.90
16321;DHT22;8269;50.990;4.494;2023-07-29T07:06:52;22.70;99.90
16321;DHT22;8269;50.990;4.494;2023-07-29T07:09:18;22.50;99.90
16321;DHT22;8269;50.990;4.494;2023-07-29T07:11:44;22.10;99.90
16321;DHT22;8269;50.990;4.494;2023-07-29T07:14:10;21.80;99.90
16321;DHT22;8269;50.990;4.494;2023-07-29T07:16:35;21.60;99.90
16321;DHT22;8269;50.990;4.494;2023-07-29T07:19:02;21.70;99.90
16321;DHT22;8269;50.990;4.494;2023-07-29T07:21:28;21.50;99.90
16321;DHT22;8269;50.990;4.494;2023-07-29T07:23:53;21.40;99.90
16321;DHT22;8269;50.990;4.494;2023-07-29T07:26:19;21.30;99.90
16321;DHT22;8269;50.990;4.494;2023-07-29T07:28:45;21.10;99.90
16321;DHT22;8269;50.990;4.494;2023-07-29T07:31:10;21.00;99.90
16321;DHT22;8269;50.990;4.494;2023-07-29T07:33:36;20.80;99.90
16321;DHT22;8269;50.990;4.494;2023-07-29T07:36:02;20.60;99.90
16321;DHT22;8269;50.990;4.494;2023-07-29T07:38:27;20.50;99.90
16321;DHT22;8269;50.990;4.494;2023-07-29T07:40:54;20.40;99.90
16321;DHT22;8269;50.990;4.494;2023-07-29T07:43:23;20.30;99.90
16321;DHT22;8269;50.990;4.494;2023-07-29T07:45:49;20.20;99.90
16321;DHT22;8269;50.990;4.494;2023-07-29T07:48:14;20.20;99.90
16321;DHT22;8269;50.990;4.494;2023-07-29T07:50:42;20.20;99.90
16321;DHT22;8269;50.990;4.494;2023-07-29T07:53:08;20.20;99.90
16321;DHT22;8269;50.990;4.494;2023-07-29T07:55:34;20.20;99.90
16321;DHT22;8269;50.990;4.494;2023-07-29T07:57:59;20.30;99.90
16321;DHT22;8269;50.990;4.494;2023-07-29T08:00:25;20.70;99.90
16321;DHT22;8269;50.990;4.494;2023-07-29T08:02:50;21.30;99.90
16321;DHT22;8269;50.990;4.494;2023-07-29T08:05:16;21.90;99.90
16321;DHT22;8269;50.990;4.494;2023-07-29T08:07:42;22.10;99.90
16321;DHT22;8269;50.990;4.494;2023-07-29T08:10:08;22.10;99.90
16321;DHT22;8269;50.990;4.494;2023-07-29T08:12:33;22.20;99.90
16321;DHT22;8269;50.990;4.494;2023-07-29T08:14:59;22.50;99.90
16321;DHT22;8269;50.990;4.494;2023-07-29T08:17:24;22.70;99.90
16321;DHT22;8269;50.990;4.494;2023-07-29T08:19:50;23.00;99.90
16321;DHT22;8269;50.990;4.494;2023-07-29T08:22:16;23.40;99.90
16321;DHT22;8269;50.990;4.494;2023-07-29T08:24:42;23.60;99.90
16321;DHT22;8269;50.990;4.494;2023-07-29T08:27:08;24.00;99.90
16321;DHT22;8269;50.990;4.494;2023-07-29T08:29:34;24.50;99.90
16321;DHT22;8269;50.990;4.494;2023-07-29T08:32:00;24.70;99.90
16321;DHT22;8269;50.990;4.494;2023-07-29T08:34:25;25.10;99.90
16321;DHT22;8269;50.990;4.494;2023-07-29T08:36:51;25.20;99.90
16321;DHT22;8269;50.990;4.494;2023-07-29T08:39:16;25.00;99.90
16321;DHT22;8269;50.990;4.494;2023-07-29T08:44:26;24.80;99.90
16321;DHT22;8269;50.990;4.494;2023-07-29T08:46:54;24.60;99.90
16321;DHT22;8269;50.990;4.494;2023-07-29T08:49:23;24.40;99.90
16321;DHT22;8269;50.990;4.494;2023-07-29T08:51:50;24.60;99.90
16321;DHT22;8269;50.990;4.494;2023-07-29T08:54:18;24.50;99.90
16321;DHT22;8269;50.990;4.494;2023-07-29T08:56:45;24.40;99.90
16321;DHT22;8269;50.990;4.494;2023-07-29T08:59:12;24.60;99.90
16321;DHT22;8269;50.990;4.494;2023-07-29T09:01:38;25.00;99.90
16321;DHT22;8269;50.990;4.494;2023-07-29T09:04:04;25.60;99.90
16321;DHT22;8269;50.990;4.494;2023-07-29T09:06:31;25.80;99.90
16321;DHT22;8269;50.990;4.494;2023-07-29T09:08:58;25.60;99.90
16321;DHT22;8269;50.990;4.494;2023-07-29T09:11:25;25.50;99.90
16321;DHT22;8269;50.990;4.494;2023-07-29T09:13:51;25.00;99.90
16321;DHT22;8269;50.990;4.494;2023-07-29T09:16:18;24.90;99.90
16321;DHT22;8269;50.990;4.494;2023-07-29T09:18:48;24.70;99.90
16321;DHT22;8269;50.990;4.494;2023-07-29T09:21:17;24.40;99.90
16321;DHT22;8269;50.990;4.494;2023-07-29T09:23:44;24.20;99.90
16321;DHT22;8269;50.990;4.494;2023-07-29T09:26:10;24.00;99.90
16321;DHT22;8269;50.990;4.494;2023-07-29T09:28:37;24.00;99.90
16321;DHT22;8269;50.990;4.494;2023-07-29T09:31:03;24.10;99.90
16321;DHT22;8269;50.990;4.494;2023-07-29T09:33:32;24.30;99.90
16321;DHT22;8269;50.990;4.494;2023-07-29T09:36:00;24.50;99.90
16321;DHT22;8269;50.990;4.494;2023-07-29T09:38:29;24.50;99.90
16321;DHT22;8269;50.990;4.494;2023-07-29T09:40:56;24.40;99.90
16321;DHT22;8269;50.990;4.494;2023-07-29T09:43:33;24.40;99.90
16321;DHT22;8269;50.990;4.494;2023-07-29T09:46:03;24.30;99.90
16321;DHT22;8269;50.990;4.494;2023-07-29T09:48:37;24.10;99.90
16321;DHT22;8269;50.990;4.494;2023-07-29T09:51:13;23.90;99.90
16321;DHT22;8269;50.990;4.494;2023-07-29T09:53:46;23.80;99.90
16321;DHT22;8269;50.990;4.494;2023-07-29T09:56:13;23.80;99.90
16321;DHT22;8269;50.990;4.494;2023-07-29T09:58:39;23.60;99.90
16321;DHT22;8269;50.990;4.494;2023-07-29T10:01:06;23.30;99.90
16321;DHT22;8269;50.990;4.494;2023-07-29T10:03:33;23.10;99.90
16321;DHT22;8269;50.990;4.494;2023-07-29T10:06:03;22.70;99.90
16321;DHT22;8269;50.990;4.494;2023-07-29T10:08:34;22.80;99.90
16321;DHT22;8269;50.990;4.494;2023-07-29T10:11:09;22.90;99.90
16321;DHT22;8269;50.990;4.494;2023-07-29T10:13:36;23.00;99.90
16321;DHT22;8269;50.990;4.494;2023-07-29T10:16:02;23.20;99.90
16321;DHT22;8269;50.990;4.494;2023-07-29T10:18:29;23.20;99.90
16321;DHT22;8269;50.990;4.494;2023-07-29T10:20:58;23.20;99.90
16321;DHT22;8269;50.990;4.494;2023-07-29T10:23:25;23.30;99.90
16321;DHT22;8269;50.990;4.494;2023-07-29T10:26:10;23.50;99.90
16321;DHT22;8269;50.990;4.494;2023-07-29T10:28:40;23.90;99.90
16321;DHT22;8269;50.990;4.494;2023-07-29T10:31:06;24.40;99.90
16321;DHT22;8269;50.990;4.494;2023-07-29T10:33:34;24.80;99.90
16321;DHT22;8269;50.990;4.494;2023-07-29T10:36:00;24.90;99.90
16321;DHT22;8269;50.990;4.494;2023-07-29T10:38:26;25.00;99.90
16321;DHT22;8269;50.990;4.494;2023-07-29T10:40:55;24.90;99.90
16321;DHT22;8269;50.990;4.494;2023-07-29T10:45:50;25.00;99.90
16321;DHT22;8269;50.990;4.494;2023-07-29T10:53:48;25.00;99.90
16321;DHT22;8269;50.990;4.494;2023-07-29T10:56:33;25.50;99.90
16321;DHT22;8269;50.990;4.494;2023-07-29T11:02:02;25.60;99.90
16321;DHT22;8269;50.990;4.494;2023-07-29T11:04:29;25.40;99.90
16321;DHT22;8269;50.990;4.494;2023-07-29T11:17:32;23.90;99.90
16321;DHT22;8269;50.990;4.494;2023-07-29T11:20:02;23.80;99.90
16321;DHT22;8269;50.990;4.494;2023-07-29T11:22:29;23.60;99.90
16321;DHT22;8269;50.990;4.494;2023-07-29T11:24:55;23.20;99.90
16321;DHT22;8269;50.990;4.494;2023-07-29T11:27:20;23.10;99.90
16321;DHT22;8269;50.990;4.494;2023-07-29T11:29:47;22.60;99.90
16321;DHT22;8269;50.990;4.494;2023-07-29T11:32:12;21.80;99.90
16321;DHT22;8269;50.990;4.494;2023-07-29T11:34:38;21.10;99.90
16321;DHT22;8269;50.990;4.494;2023-07-29T11:37:05;20.80;99.90
16321;DHT22;8269;50.990;4.494;2023-07-29T11:39:32;20.70;99.90
16321;DHT22;8269;50.990;4.494;2023-07-29T11:41:58;21.00;99.90
16321;DHT22;8269;50.990;4.494;2023-07-29T11:44:24;21.40;99.90
16321;DHT22;8269;50.990;4.494;2023-07-29T11:46:50;21.80;99.90
16321;DHT22;8269;50.990;4.494;2023-07-29T11:49:16;22.20;99.90
16321;DHT22;8269;50.990;4.494;2023-07-29T11:51:42;22.30;99.90
16321;DHT22;8269;50.990;4.494;2023-07-29T11:54:11;22.40;99.90
16321;DHT22;8269;50.990;4.494;2023-07-29T11:56:37;22.40;99.90
16321;DHT22;8269;50.990;4.494;2023-07-29T11:59:03;22.40;99.90
16321;DHT22;8269;50.990;4.494;2023-07-29T12:01:29;22.30;99.90
16321;DHT22;8269;50.990;4.494;2023-07-29T12:03:55;22.10;99.90
16321;DHT22;8269;50.990;4.494;2023-07-29T12:06:23;22.10;99.90
16321;DHT22;8269;50.990;4.494;2023-07-29T12:08:50;22.00;99.90
16321;DHT22;8269;50.990;4.494;2023-07-29T12:11:16;22.00;99.90
16321;DHT22;8269;50.990;4.494;2023-07-29T12:13:44;21.80;99.90
16321;DHT22;8269;50.990;4.494;2023-07-29T12:16:09;21.80;99.90
16321;DHT22;8269;50.990;4.494;2023-07-29T12:18:36;21.80;99.90
16321;DHT22;8269;50.990;4.494;2023-07-29T12:21:02;21.90;99.90
16321;DHT22;8269;50.990;4.494;2023-07-29T12:23:29;22.00;99.90
16321;DHT22;8269;50.990;4.494;2023-07-29T12:25:59;22.20;99.90
16321;DHT22;8269;50.990;4.494;2023-07-29T12:28:25;22.40;99.90
16321;DHT22;8269;50.990;4.494;2023-07-29T12:30:55;22.60;99.90
16321;DHT22;8269;50.990;4.494;2023-07-29T12:33:47;22.60;99.90
16321;DHT22;8269;50.990;4.494;2023-07-29T12:36:13;22.40;99.90
16321;DHT22;8269;50.990;4.494;2023-07-29T12:38:39;22.50;99.90
16321;DHT22;8269;50.990;4.494;2023-07-29T12:41:04;22.50;99.90
16321;DHT22;8269;50.990;4.494;2023-07-29T12:43:30;22.40;99.90
16321;DHT22;8269;50.990;4.494;2023-07-29T12:45:57;22.50;99.90
16321;DHT22;8269;50.990;4.494;2023-07-29T12:48:22;22.60;99.90
16321;DHT22;8269;50.990;4.494;2023-07-29T12:50:48;22.50;99.90
16321;DHT22;8269;50.990;4.494;2023-07-29T12:53:14;22.50;99.90
16321;DHT22;8269;50.990;4.494;2023-07-29T12:55:39;22.60;99.90
16321;DHT22;8269;50.990;4.494;2023-07-29T12:58:05;22.60;99.90
16321;DHT22;8269;50.990;4.494;2023-07-29T13:00:30;22.50;99.90
16321;DHT22;8269;50.990;4.494;2023-07-29T13:02:56;22.40;99.90
16321;DHT22;8269;50.990;4.494;2023-07-29T13:05:22;22.40;99.90
16321;DHT22;8269;50.990;4.494;2023-07-29T13:07:48;22.60;99.90
16321;DHT22;8269;50.990;4.494;2023-07-29T13:10:13;22.80;99.90
16321;DHT22;8269;50.990;4.494;2023-07-29T13:12:39;22.80;99.90
16321;DHT22;8269;50.990;4.494;2023-07-29T13:15:06;22.70;99.90
16321;DHT22;8269;50.990;4.494;2023-07-29T13:17:32;22.50;99.90
16321;DHT22;8269;50.990;4.494;2023-07-29T13:19:58;22.70;99.90
16321;DHT22;8269;50.990;4.494;2023-07-29T13:22:24;22.80;99.90
16321;DHT22;8269;50.990;4.494;2023-07-29T13:24:49;23.00;99.90
16321;DHT22;8269;50.990;4.494;2023-07-29T13:27:15;23.00;99.90
16321;DHT22;8269;50.990;4.494;2023-07-29T13:29:40;23.20;99.90
16321;DHT22;8269;50.990;4.494;2023-07-29T13:32:07;23.40;99.90
16321;DHT22;8269;50.990;4.494;2023-07-29T13:34:33;23.70;99.90
16321;DHT22;8269;50.990;4.494;2023-07-29T13:37:01;24.00;99.90
16321;DHT22;8269;50.990;4.494;2023-07-29T13:39:27;24.10;99.90
16321;DHT22;8269;50.990;4.494;2023-07-29T13:41:53;24.20;99.90
16321;DHT22;8269;50.990;4.494;2023-07-29T13:44:19;24.20;99.90
16321;DHT22;8269;50.990;4.494;2023-07-29T13:46:44;24.20;99.90
16321;DHT22;8269;50.990;4.494;2023-07-29T13:49:10;24.10;99.90
16321;DHT22;8269;50.990;4.494;2023-07-29T13:51:36;24.10;99.90
16321;DHT22;8269;50.990;4.494;2023-07-29T13:54:02;24.20;99.90
16321;DHT22;8269;50.990;4.494;2023-07-29T13:56:28;24.30;99.90
16321;DHT22;8269;50.990;4.494;2023-07-29T13:58:53;24.10;99.90
16321;DHT22;8269;50.990;4.494;2023-07-29T14:01:19;24.00;99.90
16321;DHT22;8269;50.990;4.494;2023-07-29T14:03:45;23.90;99.90
16321;DHT22;8269;50.990;4.494;2023-07-29T14:06:10;24.00;99.90
16321;DHT22;8269;50.990;4.494;2023-07-29T14:08:36;24.00;99.90
16321;DHT22;8269;50.990;4.494;2023-07-29T14:11:01;23.80;99.90
16321;DHT22;8269;50.990;4.494;2023-07-29T14:13:27;23.60;99.90
16321;DHT22;8269;50.990;4.494;2023-07-29T14:15:52;23.50;99.90
16321;DHT22;8269;50.990;4.494;2023-07-29T14:18:18;23.40;99.90
16321;DHT22;8269;50.990;4.494;2023-07-29T14:20:44;23.30;99.90
16321;DHT22;8269;50.990;4.494;2023-07-29T14:23:09;23.30;99.90
16321;DHT22;8269;50.990;4.494;2023-07-29T14:25:35;23.10;99.90
16321;DHT22;8269;50.990;4.494;2023-07-29T14:28:01;23.20;99.90
16321;DHT22;8269;50.990;4.494;2023-07-29T14:30:26;23.30;99.90
16321;DHT22;8269;50.990;4.494;2023-07-29T14:32:52;23.30;99.90
16321;DHT22;8269;50.990;4.494;2023-07-29T14:35:17;23.60;99.90
16321;DHT22;8269;50.990;4.494;2023-07-29T14:37:43;23.70;99.90
16321;DHT22;8269;50.990;4.494;2023-07-29T14:40:09;23.70;99.90
16321;DHT22;8269;50.990;4.494;2023-07-29T14:42:34;23.70;99.90
16321;DHT22;8269;50.990;4.494;2023-07-29T14:45:00;23.60;99.90
16321;DHT22;8269;50.990;4.494;2023-07-29T14:47:25;23.50;99.90
16321;DHT22;8269;50.990;4.494;2023-07-29T14:49:51;23.50;99.90
16321;DHT22;8269;50.990;4.494;2023-07-29T14:52:16;23.60;99.90
16321;DHT22;8269;50.990;4.494;2023-07-29T14:54:42;23.50;99.90
16321;DHT22;8269;50.990;4.494;2023-07-29T14:57:10;23.50;99.90
16321;DHT22;8269;50.990;4.494;2023-07-29T14:59:35;23.60;99.90
16321;DHT22;8269;50.990;4.494;2023-07-29T15:02:01;23.70;99.90
16321;DHT22;8269;50.990;4.494;2023-07-29T15:04:26;23.70;99.90
16321;DHT22;8269;50.990;4.494;2023-07-29T15:06:52;23.60;99.90
16321;DHT22;8269;50.990;4.494;2023-07-29T15:09:18;23.50;99.90
16321;DHT22;8269;50.990;4.494;2023-07-29T15:11:43;23.40;99.90
16321;DHT22;8269;50.990;4.494;2023-07-29T15:14:09;23.40;99.90
16321;DHT22;8269;50.990;4.494;2023-07-29T15:16:35;23.30;99.90
16321;DHT22;8269;50.990;4.494;2023-07-29T15:19:02;23.40;99.90
16321;DHT22;8269;50.990;4.494;2023-07-29T15:21:32;23.40;99.90
16321;DHT22;8269;50.990;4.494;2023-07-29T15:23:59;23.30;99.90
16321;DHT22;8269;50.990;4.494;2023-07-29T15:26:24;23.40;99.90
16321;DHT22;8269;50.990;4.494;2023-07-29T15:28:50;23.40;99.90
16321;DHT22;8269;50.990;4.494;2023-07-29T15:31:16;23.40;99.90
16321;DHT22;8269;50.990;4.494;2023-07-29T15:33:42;23.40;99.90
16321;DHT22;8269;50.990;4.494;2023-07-29T15:36:08;23.30;99.90
16321;DHT22;8269;50.990;4.494;2023-07-29T15:38:33;23.40;99.90
16321;DHT22;8269;50.990;4.494;2023-07-29T15:41:00;23.40;99.90
16321;DHT22;8269;50.990;4.494;2023-07-29T15:43:26;23.30;99.90
16321;DHT22;8269;50.990;4.494;2023-07-29T15:45:52;23.10;99.90
16321;DHT22;8269;50.990;4.494;2023-07-29T15:48:17;23.10;99.90
16321;DHT22;8269;50.990;4.494;2023-07-29T15:50:43;23.00;99.90
16321;DHT22;8269;50.990;4.494;2023-07-29T15:53:08;23.00;99.90
16321;DHT22;8269;50.990;4.494;2023-07-29T15:55:34;23.00;99.90
16321;DHT22;8269;50.990;4.494;2023-07-29T15:58:00;23.00;99.90
16321;DHT22;8269;50.990;4.494;2023-07-29T16:00:26;23.00;99.90
16321;DHT22;8269;50.990;4.494;2023-07-29T16:02:53;23.00;99.90
16321;DHT22;8269;50.990;4.494;2023-07-29T16:05:19;23.00;99.90
16321;DHT22;8269;50.990;4.494;2023-07-29T16:07:46;22.90;99.90